Weather History for KMDS - August, 2013

Change the Weather History Date:

Friday, August 2, 2013

  Actual Average Record
Temperature  
Mean Temperature 62 °F -  
Max Temperature 68 °F 85 °F 82 °F (2010)
Min Temperature 53 °F 58 °F 53 °F (2013)
Degree Days  
Heating Degree Days 4    
Growing Degree Days 12 (Base 50)    
Moisture  
Dew Point 60 °F    
Average Humidity 91    
Maximum Humidity 100    
Minimum Humidity 64    
Precipitation  
Precipitation 0.05 in - - ()
Sea Level Pressure  
Sea Level Pressure 30.01 in    
Wind  
Wind Speed 4 mph (East)    
Max Wind Speed 12 mph    
Max Gust Speed -    
Visibility 10 miles    
Events Rain    
Averages and records for this station are not official NWS values.
T = Trace of Precipitation, MM = Missing Value Source: NWS Daily Summary

Daily Weather History Graph

Daily Weather History Graph

Search for Another Location

Airport or City:

Trip Planner

Search our weather history database for the weather conditions in past years. The results will help you decide how hot, cold, wet, or windy it might be!

Date:

Astronomy

Aug. 02, 2013 Rise Set
Actual Time 6:17 AM CDT 8:50 PM CDT
Civil Twilight 5:45 AM CDT 9:23 PM CDT
Nautical Twilight 5:03 AM CDT 10:04 PM CDT
Astronomical Twilight 4:17 AM CDT 10:50 PM CDT
Moon 2:38 AM CDT (8/2) 5:50 PM CDT (8/2)
Length of Visible Light 15h 38m
Length of Day
14h 32m
Waning Crescent, 15% of the Moon is Illuminated
Aug 2
Waning Crescent
Aug 6
New
Aug 14
First Quarter
Aug 20
Full
Aug 28
Last Quarter

Hourly Weather History & Observations

Time (CDT) Temp. Dew Point Humidity Pressure Visibility Wind Dir Wind Speed Gust Speed Precip Events Conditions
12:10 AM 59.0 °F 59.0 °F 100% 29.93 in 10.0 mi ENE 4.6 mph - N/A   Overcast
12:30 AM 62.6 °F 62.6 °F 100% 29.95 in 10.0 mi ENE 4.6 mph - N/A   Overcast
12:50 AM 62.6 °F 62.6 °F 100% 29.96 in 10.0 mi NE 5.8 mph - N/A   Overcast
1:10 AM 62.6 °F 60.8 °F 94% 29.95 in 10.0 mi East 6.9 mph - N/A   Overcast
1:30 AM 62.6 °F 62.6 °F 100% 29.95 in 10.0 mi Calm Calm - N/A   Overcast
1:50 AM 62.6 °F 60.8 °F 94% 29.95 in 10.0 mi Calm Calm - N/A   Scattered Clouds
2:10 AM 60.8 °F 60.8 °F 100% 29.95 in 10.0 mi SSW 3.5 mph - N/A   Clear
2:30 AM 60.8 °F 60.8 °F 100% 29.96 in 10.0 mi South 3.5 mph - N/A   Partly Cloudy
2:50 AM 62.6 °F 59.0 °F 88% 29.93 in 10.0 mi East 4.6 mph - N/A   Mostly Cloudy
3:10 AM 60.8 °F 60.8 °F 100% 29.94 in 10.0 mi ENE 5.8 mph - N/A   Mostly Cloudy
3:30 AM 59.0 °F 59.0 °F 100% 29.94 in 10.0 mi SSE 3.5 mph - N/A   Mostly Cloudy
3:50 AM 60.8 °F 59.0 °F 94% 29.94 in 10.0 mi East 3.5 mph - N/A   Mostly Cloudy
4:10 AM 59.0 °F 59.0 °F 100% 29.94 in 10.0 mi NE 5.8 mph - N/A   Mostly Cloudy
4:30 AM 59.0 °F 59.0 °F 100% 29.94 in 10.0 mi ENE 4.6 mph - N/A   Mostly Cloudy
4:50 AM 59.0 °F 59.0 °F 100% 29.95 in 10.0 mi SSE 3.5 mph - N/A   Mostly Cloudy
5:10 AM 59.0 °F 59.0 °F 100% 29.95 in 10.0 mi East 3.5 mph - N/A   Mostly Cloudy
5:30 AM 59.0 °F 59.0 °F 100% 29.95 in 10.0 mi NE 8.1 mph - N/A   Mostly Cloudy
5:50 AM 59.0 °F 59.0 °F 100% 29.94 in 10.0 mi NE 8.1 mph - N/A   Overcast
6:10 AM 59.0 °F 59.0 °F 100% 29.96 in 10.0 mi NE 3.5 mph - N/A   Overcast
6:30 AM 59.0 °F 59.0 °F 100% 29.96 in 10.0 mi NE 4.6 mph - N/A   Overcast
6:50 AM 60.8 °F 60.8 °F 100% 29.96 in 10.0 mi ENE 4.6 mph - N/A   Overcast
7:10 AM 60.8 °F 60.8 °F 100% 29.96 in 10.0 mi NE 4.6 mph - N/A   Overcast
7:30 AM 62.6 °F 60.8 °F 94% 29.96 in 10.0 mi NE 6.9 mph - N/A   Scattered Clouds
7:50 AM 62.6 °F 60.8 °F 94% 29.96 in 10.0 mi East 5.8 mph - N/A   Partly Cloudy
8:10 AM 62.6 °F 62.6 °F 100% 29.96 in 10.0 mi ENE 5.8 mph - N/A   Clear
8:30 AM 62.6 °F 60.8 °F 94% 29.95 in 10.0 mi ENE 6.9 mph - N/A   Clear
8:50 AM 64.4 °F 59.0 °F 83% 29.96 in 10.0 mi ENE 8.1 mph - N/A   Clear
9:10 AM 64.4 °F 59.0 °F 83% 29.98 in 10.0 mi East 6.9 mph - N/A   Mostly Cloudy
9:30 AM 64.4 °F 55.4 °F 73% 29.98 in 10.0 mi East 9.2 mph - N/A   Overcast
9:50 AM 64.4 °F 57.2 °F 77% 29.99 in 10.0 mi ENE 6.9 mph - N/A   Overcast
10:10 AM 64.4 °F 59.0 °F 83% 30.01 in 10.0 mi NE 4.6 mph - N/A Rain Light Rain
10:30 AM 62.6 °F 62.6 °F 100% 30.03 in 10.0 mi WNW 4.6 mph - 0.02 in Rain Light Rain
10:50 AM 62.6 °F 62.6 °F 100% 30.04 in 10.0 mi Calm Calm - 0.04 in Rain Light Rain
11:10 AM 62.6 °F 62.6 °F 100% 30.04 in 10.0 mi Calm Calm - N/A Rain Light Rain
11:30 AM 62.6 °F 62.6 °F 100% 30.02 in 10.0 mi South 4.6 mph - N/A Rain Light Rain
11:50 AM 62.6 °F 62.6 °F 100% 30.01 in 10.0 mi SE 6.9 mph - N/A   Clear
12:10 PM 62.6 °F 62.6 °F 100% 30.01 in 10.0 mi SSE 5.8 mph - N/A   Partly Cloudy
12:30 PM 62.6 °F 62.6 °F 100% 30.02 in 10.0 mi ENE 3.5 mph - N/A   Partly Cloudy
12:50 PM 64.4 °F 62.6 °F 94% 30.02 in 10.0 mi Calm Calm - N/A   Mostly Cloudy
1:10 PM 64.4 °F 64.4 °F 100% 30.02 in 10.0 mi East 5.8 mph - N/A Rain Light Rain
1:30 PM 64.4 °F 64.4 °F 100% 30.04 in 10.0 mi Calm Calm - N/A Rain Light Rain
1:50 PM 64.4 °F 64.4 °F 100% 30.05 in 10.0 mi Calm Calm - 0.01 in Rain Light Rain
2:10 PM 64.4 °F 64.4 °F 100% 30.05 in 10.0 mi SSW 3.5 mph - N/A   Overcast
2:30 PM 64.4 °F 64.4 °F 100% 30.05 in 10.0 mi SW 4.6 mph - N/A   Mostly Cloudy
2:50 PM 64.4 °F 64.4 °F 100% 30.03 in 10.0 mi Calm Calm - N/A Rain Light Rain
3:10 PM 64.4 °F 64.4 °F 100% 29.97 in 10.0 mi SSE 11.5 mph - N/A Rain Light Rain
3:30 PM 66.2 °F 64.4 °F 94% 30.00 in 10.0 mi ESE 5.8 mph - N/A   Clear
3:50 PM 66.2 °F 64.4 °F 94% 30.01 in 10.0 mi East 6.9 mph - N/A   Clear
4:10 PM 68.0 °F 59.0 °F 73% 30.02 in 10.0 mi ESE 3.5 mph - N/A   Clear
4:30 PM 68.0 °F 57.2 °F 68% 30.03 in 10.0 mi SE 4.6 mph - N/A   Clear
4:50 PM 68.0 °F 57.2 °F 68% 30.04 in 10.0 mi SE 5.8 mph - N/A   Clear
5:10 PM 68.0 °F 55.4 °F 64% 30.04 in 10.0 mi ESE 4.6 mph - N/A   Partly Cloudy
5:30 PM 68.0 °F 55.4 °F 64% 30.05 in 10.0 mi Calm Calm - N/A   Partly Cloudy
5:50 PM 68.0 °F 55.4 °F 64% 30.03 in 10.0 mi East 4.6 mph - N/A   Clear
6:10 PM 68.0 °F 55.4 °F 64% 30.03 in 10.0 mi East 6.9 mph - N/A   Clear
6:30 PM 68.0 °F 55.4 °F 64% 30.04 in 10.0 mi ESE 3.5 mph - N/A   Clear
6:50 PM 68.0 °F 55.4 °F 64% 30.04 in 10.0 mi Calm Calm - N/A   Clear
7:10 PM 68.0 °F 55.4 °F 64% 30.05 in 10.0 mi Calm Calm - N/A   Clear
7:30 PM 66.2 °F 57.2 °F 73% 30.05 in 10.0 mi Calm Calm - N/A   Clear
7:50 PM 66.2 °F 57.2 °F 73% 30.05 in 10.0 mi Calm Calm - N/A   Clear
8:10 PM 66.2 °F 57.2 °F 73% 30.06 in 10.0 mi Calm Calm - N/A   Clear
8:30 PM 64.4 °F 53.6 °F 68% 30.07 in 10.0 mi Calm Calm - N/A   Clear
8:50 PM 62.6 °F 59.0 °F 88% 30.07 in 10.0 mi Calm Calm - N/A   Clear
9:10 PM 62.6 °F 57.2 °F 82% 30.08 in 10.0 mi Calm Calm - N/A   Clear
9:30 PM 59.0 °F 59.0 °F 100% 30.09 in 10.0 mi Calm Calm - N/A   Clear
9:50 PM 59.0 °F 59.0 °F 100% 30.09 in 10.0 mi Calm Calm - N/A   Clear
10:10 PM 59.0 °F 59.0 °F 100% 30.09 in 10.0 mi Calm Calm - N/A   Clear
10:30 PM 57.2 °F 57.2 °F 100% 30.09 in 10.0 mi Calm Calm - N/A   Clear
10:50 PM 57.2 °F 57.2 °F 100% 30.09 in 10.0 mi Calm Calm - N/A   Clear
11:10 PM 55.4 °F 55.4 °F 100% 30.10 in 10.0 mi Calm Calm - N/A   Clear
11:30 PM 55.4 °F 55.4 °F 100% 30.10 in 10.0 mi ENE 3.5 mph - N/A   Clear
11:50 PM 53.6 °F 53.6 °F 100% 30.11 in 10.0 mi Calm Calm - N/A   Clear